logo
Search for airport 
image banner adimage banner adimage banner ad
image banner ad

YCAVE - Caveside

Located in Caveside, Australia

ICAO - , IATA -

Data provided by Airmate  

General information

Coordinates: S41°36'55" E146°27'1"
Elevation is 987 feet MSL.
Magnetic variation is 14° East
View others Airports in Tasmania

Operational data

Special qualification required
Current time UTC:
Current local time:
Weather at : YMLT - Launceston ( 64 km )
METAR: YMLT 241830Z AUTO 28003KT 9999 // NCD 02/02 Q1014 RF00.0/000.0
TAF: TAF YMLT 241706Z 2418/2518 VRB03KT 9999 MIFG SCT020 SCT035 FM242300 VRB03KT 9999 NSW SCT020 SCT035 FM250100 35010KT 9999 -SHRA SCT025 SCT035 INTER 2514/2518 34015G25KT 5000 SHRA SCT015 PROB30 2418/2423 0500 FG BKN001
View NOTAMs / SUP AIP / TFR affecting this airport [VIEW]
Communications frequencies: [VIEW]

Runways:

RWY identifierQFULength (ft)Width (ft)SurfaceLDA (ft)
35152469GRAS
17187°152469GRAS

Airport contact information

Address: Caveside Australia

Satellite view of YCAVE